Time,TemperatureF,DewpointF,PressureIn,WindDirection,WindDirectionDegrees,WindSpeedMPH,WindSpeedGustMPH,Humidity,HourlyPrecipIn,Conditions,Clouds,dailyrainin,SoftwareType,DateUTC
2013-04-07 00:02:00,47.6,43.3,29.71,SSE,147,0.0,0.0,85,0.08,,---,0.00,VWS V14.01,2013-04-07 07:02:00,
2013-04-07 00:07:00,47.5,42.9,29.71,SE,132,1.0,4.0,84,0.08,,---,0.00,VWS V14.01,2013-04-07 07:07:00,
2013-04-07 00:12:00,47.6,42.7,29.71,SE,139,1.0,4.0,83,0.09,,---,0.01,VWS V14.01,2013-04-07 07:12:00,
2013-04-07 00:17:00,47.6,42.7,29.71,ESE,121,0.0,4.0,83,0.10,,---,0.02,VWS V14.01,2013-04-07 07:17:00,
2013-04-07 00:22:00,47.6,42.4,29.70,ESE,120,0.0,4.0,82,0.11,,---,0.03,VWS V14.01,2013-04-07 07:22:00,
2013-04-07 00:27:00,47.7,42.5,29.69,SE,138,1.0,6.0,82,0.11,,---,0.03,VWS V14.01,2013-04-07 07:27:00,
2013-04-07 00:32:00,47.9,43.0,29.69,East,96,1.0,3.0,83,0.08,,---,0.04,VWS V14.01,2013-04-07 07:32:00,
2013-04-07 00:37:00,48.0,43.1,29.69,ESE,121,1.0,6.0,83,0.08,,---,0.04,VWS V14.01,2013-04-07 07:37:00,
2013-04-07 00:42:00,48.2,43.6,29.67,SSW,201,2.0,9.0,84,0.08,,---,0.04,VWS V14.01,2013-04-07 07:42:00,
2013-04-07 00:47:00,48.4,44.1,29.67,ESE,122,3.0,9.0,85,0.08,,---,0.04,VWS V14.01,2013-04-07 07:47:00,
2013-04-07 00:52:00,48.6,44.6,29.66,SE,129,4.0,9.0,86,0.08,,---,0.04,VWS V14.01,2013-04-07 07:52:00,
2013-04-07 00:57:00,48.7,44.7,29.66,ESE,120,3.0,9.0,86,0.08,,---,0.04,VWS V14.01,2013-04-07 07:57:00,
2013-04-07 01:02:00,48.9,45.2,29.65,SSE,158,1.0,3.0,87,0.04,,---,0.04,VWS V14.01,2013-04-07 08:02:00,
2013-04-07 01:07:00,49.0,45.3,29.65,SE,138,0.0,11.0,87,0.05,,---,0.05,VWS V14.01,2013-04-07 08:07:00,
2013-04-07 01:12:00,49.2,45.8,29.65,SSW,212,2.0,15.0,88,0.05,,---,0.05,VWS V14.01,2013-04-07 08:12:00,
2013-04-07 01:17:00,49.4,46.0,29.65,SW,232,4.0,15.0,88,0.05,,---,0.05,VWS V14.01,2013-04-07 08:17:00,
2013-04-07 01:22:00,49.5,46.1,29.64,SSE,150,1.0,16.0,88,0.05,,---,0.05,VWS V14.01,2013-04-07 08:22:00,
2013-04-07 01:27:00,49.6,46.2,29.64,SE,126,1.0,16.0,88,0.05,,---,0.05,VWS V14.01,2013-04-07 08:27:00,
2013-04-07 01:32:00,49.6,46.2,29.64,ESE,104,3.0,3.0,88,0.01,,---,0.05,VWS V14.01,2013-04-07 08:32:00,
2013-04-07 01:37:00,49.6,46.2,29.64,SSE,155,6.0,10.0,88,0.01,,---,0.05,VWS V14.01,2013-04-07 08:37:00,
2013-04-07 01:42:00,49.7,46.3,29.64,SSE,155,3.0,12.0,88,0.01,,---,0.05,VWS V14.01,2013-04-07 08:42:00,
2013-04-07 01:47:00,49.8,46.4,29.63,ESE,118,1.0,12.0,88,0.01,,---,0.05,VWS V14.01,2013-04-07 08:47:00,
2013-04-07 01:52:00,49.8,46.4,29.63,West,264,3.0,14.0,88,0.01,,---,0.05,VWS V14.01,2013-04-07 08:52:00,
2013-04-07 01:57:00,49.8,46.4,29.63,SSE,148,0.0,14.0,88,0.01,,---,0.05,VWS V14.01,2013-04-07 08:57:00,
2013-04-07 02:02:00,49.8,46.7,29.63,ESE,109,0.0,3.0,89,0.01,,---,0.05,VWS V14.01,2013-04-07 09:02:00,
2013-04-07 02:07:00,49.9,46.5,29.63,SW,219,1.0,9.0,88,0.01,,---,0.05,VWS V14.01,2013-04-07 09:07:00,
2013-04-07 02:12:00,50.0,46.6,29.63,SSE,153,1.0,14.0,88,0.01,,---,0.05,VWS V14.01,2013-04-07 09:12:00,
2013-04-07 02:17:00,50.0,46.6,29.63,SW,227,1.0,14.0,88,0.01,,---,0.05,VWS V14.01,2013-04-07 09:17:00,
2013-04-07 02:22:00,50.1,46.7,29.62,SE,135,1.0,14.0,88,0.01,,---,0.05,VWS V14.01,2013-04-07 09:22:00,
2013-04-07 02:27:00,50.1,46.7,29.62,SSE,156,1.0,14.0,88,0.01,,---,0.05,VWS V14.01,2013-04-07 09:27:00,
2013-04-07 02:32:00,50.2,46.8,29.62,SE,146,2.0,3.0,88,0.00,,---,0.05,VWS V14.01,2013-04-07 09:32:00,
2013-04-07 02:37:00,50.2,46.8,29.62,SSW,210,0.0,11.0,88,0.00,,---,0.05,VWS V14.01,2013-04-07 09:37:00,
2013-04-07 02:42:00,50.2,46.8,29.62,SE,129,1.0,13.0,88,0.00,,---,0.05,VWS V14.01,2013-04-07 09:42:00,
2013-04-07 02:47:00,50.3,46.9,29.62,SE,132,2.0,18.0,88,0.00,,---,0.05,VWS V14.01,2013-04-07 09:47:00,
2013-04-07 02:52:00,50.4,47.0,29.62,SE,138,1.0,18.0,88,0.00,,---,0.05,VWS V14.01,2013-04-07 09:52:00,
2013-04-07 02:57:00,50.4,47.0,29.61,East,91,2.0,18.0,88,0.00,,---,0.05,VWS V14.01,2013-04-07 09:57:00,
2013-04-07 03:02:00,50.3,46.9,29.62,SW,228,4.0,4.0,88,0.00,,---,0.05,VWS V14.01,2013-04-07 10:02:00,
2013-04-07 03:07:00,50.3,46.9,29.61,ENE,69,3.0,10.0,88,0.00,,---,0.05,VWS V14.01,2013-04-07 10:07:00,
2013-04-07 03:13:00,50.2,46.8,29.61,SSW,198,1.0,12.0,88,0.00,,---,0.05,VWS V14.01,2013-04-07 10:13:00,
2013-04-07 03:18:00,50.2,46.8,29.61,SSE,167,1.0,12.0,88,0.00,,---,0.05,VWS V14.01,2013-04-07 10:18:00,
2013-04-07 03:23:00,50.1,46.7,29.61,East,87,1.0,12.0,88,0.00,,---,0.05,VWS V14.01,2013-04-07 10:23:00,
2013-04-07 03:28:00,50.1,46.4,29.60,SW,232,2.0,12.0,87,0.00,,---,0.05,VWS V14.01,2013-04-07 10:28:00,
2013-04-07 03:33:00,50.3,46.9,29.61,ESE,122,0.0,7.0,88,0.00,,---,0.05,VWS V14.01,2013-04-07 10:33:00,
2013-04-07 03:38:00,50.3,46.9,29.61,ESE,110,2.0,11.0,88,0.00,,---,0.05,VWS V14.01,2013-04-07 10:38:00,
2013-04-07 03:43:00,50.4,47.0,29.60,SSE,166,4.0,11.0,88,0.00,,---,0.05,VWS V14.01,2013-04-07 10:43:00,
2013-04-07 03:48:00,50.5,47.1,29.60,South,191,9.0,15.0,88,0.00,,---,0.05,VWS V14.01,2013-04-07 10:48:00,
2013-04-07 03:53:00,50.8,47.4,29.60,NE,52,2.0,15.0,88,0.01,,---,0.06,VWS V14.01,2013-04-07 10:53:00,
2013-04-07 03:58:00,51.0,47.6,29.59,East,98,4.0,15.0,88,0.01,,---,0.06,VWS V14.01,2013-04-07 10:58:00,
2013-04-07 04:03:00,51.1,47.7,29.59,SSW,207,4.0,10.0,88,0.01,,---,0.06,VWS V14.01,2013-04-07 11:03:00,
2013-04-07 04:08:00,51.3,47.9,29.59,SSE,152,9.0,16.0,88,0.01,,---,0.06,VWS V14.01,2013-04-07 11:08:00,
2013-04-07 04:13:00,51.3,47.9,29.59,South,177,8.0,19.0,88,0.01,,---,0.06,VWS V14.01,2013-04-07 11:13:00,
2013-04-07 04:18:00,51.2,47.8,29.60,East,96,2.0,19.0,88,0.01,,---,0.06,VWS V14.01,2013-04-07 11:18:00,
2013-04-07 04:23:00,51.1,47.7,29.60,WSW,240,5.0,19.0,88,0.01,,---,0.06,VWS V14.01,2013-04-07 11:23:00,
2013-04-07 04:28:00,51.0,47.6,29.60,SSW,203,4.0,19.0,88,0.01,,---,0.06,VWS V14.01,2013-04-07 11:28:00,
2013-04-07 04:33:00,51.2,47.5,29.60,WSW,252,2.0,6.0,87,0.01,,---,0.06,VWS V14.01,2013-04-07 11:33:00,
2013-04-07 04:38:00,51.3,47.6,29.62,WSW,252,5.0,16.0,87,0.01,,---,0.06,VWS V14.01,2013-04-07 11:38:00,
2013-04-07 04:43:00,51.4,47.4,29.63,WSW,248,9.0,16.0,86,0.01,,---,0.06,VWS V14.01,2013-04-07 11:43:00,
2013-04-07 04:48:00,51.5,47.2,29.64,ESE,113,5.0,17.0,85,0.01,,---,0.06,VWS V14.01,2013-04-07 11:48:00,
2013-04-07 04:53:00,51.4,47.0,29.64,SW,224,5.0,17.0,85,0.01,,---,0.06,VWS V14.01,2013-04-07 11:53:00,
2013-04-07 04:58:00,51.4,47.0,29.64,SSW,208,6.0,17.0,85,0.01,,---,0.06,VWS V14.01,2013-04-07 11:58:00,
2013-04-07 05:03:00,51.2,46.8,29.65,WSW,237,1.0,12.0,85,0.00,,---,0.06,VWS V14.01,2013-04-07 12:03:00,
2013-04-07 05:08:00,50.9,46.6,29.65,SW,224,4.0,12.0,85,0.00,,---,0.06,VWS V14.01,2013-04-07 12:08:00,
2013-04-07 05:13:00,50.7,46.4,29.66,SSE,162,2.0,12.0,85,0.00,,---,0.06,VWS V14.01,2013-04-07 12:13:00,
2013-04-07 05:18:00,50.5,46.2,29.66,SW,219,5.0,12.0,85,0.00,,---,0.06,VWS V14.01,2013-04-07 12:18:00,
2013-04-07 05:23:00,50.3,45.3,29.67,WNW,302,4.0,12.0,83,0.00,,---,0.06,VWS V14.01,2013-04-07 12:23:00,
2013-04-07 05:28:00,50.3,45.0,29.67,SW,219,6.0,14.0,82,0.00,,---,0.06,VWS V14.01,2013-04-07 12:28:00,
2013-04-07 05:33:00,50.1,44.8,29.69,SSW,194,9.0,10.0,82,0.00,,---,0.06,VWS V14.01,2013-04-07 12:33:00,
2013-04-07 05:38:00,50.0,44.7,29.70,SW,224,6.0,13.0,82,0.00,,---,0.06,VWS V14.01,2013-04-07 12:38:00,
2013-04-07 05:43:00,50.0,44.4,29.71,SW,225,3.0,17.0,81,0.00,,---,0.06,VWS V14.01,2013-04-07 12:43:00,
2013-04-07 05:48:00,49.8,44.2,29.71,WNW,293,1.0,17.0,81,0.00,,---,0.06,VWS V14.01,2013-04-07 12:48:00,
2013-04-07 05:53:00,49.7,44.1,29.72,West,278,1.0,17.0,81,0.00,,---,0.06,VWS V14.01,2013-04-07 12:53:00,
2013-04-07 05:58:00,49.5,43.9,29.73,South,177,4.0,17.0,81,0.00,,---,0.06,VWS V14.01,2013-04-07 12:58:00,
2013-04-07 06:03:00,49.3,44.0,29.73,SSE,160,2.0,5.0,82,0.00,,---,0.06,VWS V14.01,2013-04-07 13:03:00,
2013-04-07 06:08:00,49.2,44.0,29.74,WNW,293,1.0,12.0,82,0.00,,---,0.06,VWS V14.01,2013-04-07 13:08:00,
2013-04-07 06:13:00,49.1,43.8,29.74,SW,222,3.0,12.0,82,0.00,,---,0.06,VWS V14.01,2013-04-07 13:13:00,
2013-04-07 06:18:00,48.9,43.7,29.75,SW,218,3.0,12.0,82,0.00,,---,0.06,VWS V14.01,2013-04-07 13:18:00,
2013-04-07 06:23:00,48.8,43.6,29.75,West,263,0.0,12.0,82,0.00,,---,0.06,VWS V14.01,2013-04-07 13:23:00,
2013-04-07 06:28:00,48.6,43.4,29.75,WSW,245,1.0,12.0,82,0.00,,---,0.06,VWS V14.01,2013-04-07 13:28:00,
2013-04-07 06:33:00,48.5,43.0,29.76,SW,221,0.0,8.0,81,0.00,,---,0.06,VWS V14.01,2013-04-07 13:33:00,
2013-04-07 06:38:00,48.4,43.2,29.76,SW,224,4.0,8.0,82,0.00,,---,0.06,VWS V14.01,2013-04-07 13:38:00,
2013-04-07 06:43:00,48.3,42.8,29.76,SSW,195,2.0,11.0,81,0.00,,---,0.06,VWS V14.01,2013-04-07 13:43:00,
2013-04-07 06:48:00,48.2,42.7,29.76,SW,233,1.0,11.0,81,0.00,,---,0.06,VWS V14.01,2013-04-07 13:48:00,
2013-04-07 06:53:00,48.1,42.9,29.76,West,277,0.0,11.0,82,0.00,,---,0.06,VWS V14.01,2013-04-07 13:53:00,
2013-04-07 06:58:00,47.9,43.0,29.77,SW,229,0.0,11.0,83,0.00,,---,0.06,VWS V14.01,2013-04-07 13:58:00,
2013-04-07 07:03:00,47.7,43.1,29.77,SW,233,1.0,8.0,84,0.00,,---,0.06,VWS V14.01,2013-04-07 14:03:00,
2013-04-07 07:08:00,47.7,43.1,29.77,SW,220,9.0,16.0,84,0.00,,---,0.06,VWS V14.01,2013-04-07 14:08:00,
2013-04-07 07:13:00,47.6,43.0,29.77,SW,215,3.0,16.0,84,0.00,,---,0.06,VWS V14.01,2013-04-07 14:13:00,
2013-04-07 07:18:00,47.5,42.9,29.78,SW,222,0.0,16.0,84,0.00,,---,0.06,VWS V14.01,2013-04-07 14:18:00,
2013-04-07 07:23:00,47.6,43.0,29.78,SW,231,7.0,16.0,84,0.00,,---,0.06,VWS V14.01,2013-04-07 14:23:00,
2013-04-07 07:28:00,47.6,43.0,29.79,East,84,2.0,16.0,84,0.00,,---,0.06,VWS V14.01,2013-04-07 14:28:00,
2013-04-07 07:33:00,47.7,43.1,29.79,West,267,7.0,9.0,84,0.00,,---,0.06,VWS V14.01,2013-04-07 14:33:00,
2013-04-07 07:38:00,47.7,42.8,29.79,West,260,2.0,9.0,83,0.00,,---,0.06,VWS V14.01,2013-04-07 14:38:00,
2013-04-07 07:43:00,47.7,43.1,29.80,WSW,240,3.0,10.0,84,0.00,,---,0.06,VWS V14.01,2013-04-07 14:43:00,
2013-04-07 07:48:00,47.6,43.3,29.80,SW,229,0.0,10.0,85,0.00,,---,0.06,VWS V14.01,2013-04-07 14:48:00,
2013-04-07 07:53:00,47.4,43.4,29.80,South,190,3.0,10.0,86,0.00,,---,0.06,VWS V14.01,2013-04-07 14:53:00,
2013-04-07 07:58:00,47.3,43.3,29.81,SW,218,2.0,10.0,86,0.00,,---,0.06,VWS V14.01,2013-04-07 14:58:00,
2013-04-07 08:03:00,47.3,43.3,29.80,SSW,207,0.0,4.0,86,0.00,,---,0.06,VWS V14.01,2013-04-07 15:03:00,
2013-04-07 08:08:00,47.3,43.3,29.81,SW,215,2.0,8.0,86,0.00,,---,0.06,VWS V14.01,2013-04-07 15:08:00,
2013-04-07 08:13:00,47.5,43.5,29.81,NW,320,2.0,8.0,86,0.00,,---,0.06,VWS V14.01,2013-04-07 15:13:00,
2013-04-07 08:18:00,47.5,43.5,29.82,ESE,103,1.0,8.0,86,0.00,,---,0.06,VWS V14.01,2013-04-07 15:18:00,
2013-04-07 08:23:00,47.6,43.6,29.82,SW,224,0.0,9.0,86,0.00,,---,0.06,VWS V14.01,2013-04-07 15:23:00,
2013-04-07 08:28:00,47.6,43.6,29.82,SSW,203,0.0,9.0,86,0.00,,---,0.06,VWS V14.01,2013-04-07 15:28:00,
2013-04-07 08:33:00,47.6,43.6,29.82,SSE,149,2.0,5.0,86,0.00,,---,0.06,VWS V14.01,2013-04-07 15:33:00,
2013-04-07 08:38:00,47.6,43.3,29.83,WSW,245,1.0,10.0,85,0.00,,---,0.06,VWS V14.01,2013-04-07 15:38:00,
2013-04-07 08:43:00,47.6,43.3,29.83,West,263,5.0,10.0,85,0.00,,---,0.06,VWS V14.01,2013-04-07 15:43:00,
2013-04-07 08:48:00,47.4,43.4,29.83,WNW,283,1.0,10.0,86,0.00,,---,0.06,VWS V14.01,2013-04-07 15:48:00,
2013-04-07 08:53:00,47.3,43.0,29.83,WSW,248,0.0,10.0,85,0.00,,---,0.06,VWS V14.01,2013-04-07 15:53:00,
2013-04-07 08:58:00,47.3,43.0,29.83,SW,214,2.0,10.0,85,0.00,,---,0.06,VWS V14.01,2013-04-07 15:58:00,
2013-04-07 09:03:00,47.5,42.9,29.84,WNW,286,0.0,6.0,84,0.00,,---,0.06,VWS V14.01,2013-04-07 16:03:00,
2013-04-07 09:08:00,47.8,42.9,29.84,SW,219,5.0,7.0,83,0.00,,---,0.06,VWS V14.01,2013-04-07 16:08:00,
2013-04-07 09:13:00,48.3,43.1,29.84,WNW,296,5.0,9.0,82,0.00,,---,0.06,VWS V14.01,2013-04-07 16:13:00,
2013-04-07 09:18:00,48.8,43.6,29.84,WSW,252,4.0,9.0,82,0.00,,---,0.06,VWS V14.01,2013-04-07 16:18:00,
2013-04-07 09:23:00,49.3,44.0,29.84,West,273,3.0,10.0,82,0.00,,---,0.06,VWS V14.01,2013-04-07 16:23:00,
2013-04-07 09:28:00,49.5,44.2,29.83,SSW,211,2.0,10.0,82,0.00,,---,0.06,VWS V14.01,2013-04-07 16:28:00,
2013-04-07 09:33:00,49.4,44.5,29.83,WSW,240,4.0,4.0,83,0.00,,---,0.06,VWS V14.01,2013-04-07 16:33:00,
2013-04-07 09:38:00,49.5,43.9,29.84,SW,224,8.0,12.0,81,0.00,,---,0.06,VWS V14.01,2013-04-07 16:38:00,
2013-04-07 09:43:00,49.5,43.9,29.84,South,170,2.0,12.0,81,0.00,,---,0.06,VWS V14.01,2013-04-07 16:43:00,
2013-04-07 09:48:00,49.8,44.5,29.84,SE,145,7.0,12.0,82,0.00,,---,0.06,VWS V14.01,2013-04-07 16:48:00,
2013-04-07 09:53:00,49.9,44.3,29.84,SW,218,6.0,12.0,81,0.00,,---,0.06,VWS V14.01,2013-04-07 16:53:00,
2013-04-07 09:58:00,50.1,44.2,29.84,South,176,3.0,12.0,80,0.00,,---,0.06,VWS V14.01,2013-04-07 16:58:00,
2013-04-07 10:03:00,49.9,43.7,29.84,WSW,256,1.0,7.0,79,0.00,,---,0.06,VWS V14.01,2013-04-07 17:03:00,
2013-04-07 10:08:00,49.8,43.9,29.84,SSE,149,3.0,12.0,80,0.00,,---,0.06,VWS V14.01,2013-04-07 17:08:00,
2013-04-07 10:13:00,49.9,44.0,29.84,SW,229,10.0,12.0,80,0.00,,---,0.06,VWS V14.01,2013-04-07 17:13:00,
2013-04-07 10:18:00,49.8,43.9,29.84,SSW,201,3.0,12.0,80,0.00,,---,0.06,VWS V14.01,2013-04-07 17:18:00,
2013-04-07 10:23:00,49.9,44.3,29.85,West,274,2.0,12.0,81,0.00,,---,0.06,VWS V14.01,2013-04-07 17:23:00,
2013-04-07 10:28:00,50.2,44.9,29.85,SW,214,5.0,12.0,82,0.00,,---,0.06,VWS V14.01,2013-04-07 17:28:00,
2013-04-07 10:33:00,50.3,44.7,29.85,SSW,206,1.0,10.0,81,0.00,,---,0.06,VWS V14.01,2013-04-07 17:33:00,
2013-04-07 10:38:00,50.3,44.7,29.85,SSW,207,2.0,12.0,81,0.00,,---,0.06,VWS V14.01,2013-04-07 17:38:00,
2013-04-07 10:43:00,50.3,45.3,29.85,SW,219,3.0,12.0,83,0.00,,---,0.06,VWS V14.01,2013-04-07 17:43:00,
2013-04-07 10:48:00,50.0,44.7,29.85,WSW,242,2.0,12.0,82,0.00,,---,0.06,VWS V14.01,2013-04-07 17:48:00,
2013-04-07 10:53:00,50.0,44.7,29.85,SW,219,2.0,12.0,82,0.00,,---,0.06,VWS V14.01,2013-04-07 17:53:00,
2013-04-07 10:58:00,50.4,44.8,29.85,SSE,150,6.0,13.0,81,0.00,,---,0.06,VWS V14.01,2013-04-07 17:58:00,
2013-04-07 11:03:00,50.8,45.2,29.85,South,188,4.0,10.0,81,0.00,,---,0.06,VWS V14.01,2013-04-07 18:03:00,
2013-04-07 11:09:00,50.8,44.2,29.85,South,191,5.0,12.0,78,0.00,,---,0.06,VWS V14.01,2013-04-07 18:09:00,
2013-04-07 11:14:00,50.9,44.6,29.85,SE,141,2.0,12.0,79,0.00,,---,0.06,VWS V14.01,2013-04-07 18:14:00,
2013-04-07 11:20:00,50.9,44.6,29.85,WSW,252,1.0,12.0,79,0.00,,---,0.06,VWS V14.01,2013-04-07 18:20:00,
2013-04-07 11:25:00,50.7,44.8,29.85,WSW,246,0.0,12.0,80,0.00,,---,0.06,VWS V14.01,2013-04-07 18:25:00,
2013-04-07 11:30:00,50.5,45.5,29.85,South,184,4.0,12.0,83,0.00,,---,0.06,VWS V14.01,2013-04-07 18:30:00,
2013-04-07 11:35:00,50.4,45.4,29.85,WSW,237,5.0,7.0,83,0.00,,---,0.06,VWS V14.01,2013-04-07 18:35:00,
2013-04-07 11:40:00,50.0,45.0,29.85,SSW,208,1.0,11.0,83,0.00,,---,0.06,VWS V14.01,2013-04-07 18:40:00,
2013-04-07 11:45:00,49.5,44.6,29.86,SW,214,3.0,12.0,83,0.00,,---,0.06,VWS V14.01,2013-04-07 18:45:00,
2013-04-07 11:50:00,49.1,44.8,29.86,SSW,212,6.0,12.0,85,0.00,,---,0.06,VWS V14.01,2013-04-07 18:50:00,
2013-04-07 11:55:00,48.5,43.9,29.87,SE,139,3.0,15.0,84,0.02,,---,0.08,VWS V14.01,2013-04-07 18:55:00,
2013-04-07 12:00:00,47.8,43.5,29.86,SSW,212,2.0,15.0,85,0.02,,---,0.08,VWS V14.01,2013-04-07 19:00:00,
2013-04-07 12:05:00,47.5,43.5,29.86,NW,315,2.0,9.0,86,0.03,,---,0.09,VWS V14.01,2013-04-07 19:05:00,
2013-04-07 12:10:00,47.5,43.8,29.86,SSW,200,1.0,9.0,87,0.03,,---,0.09,VWS V14.01,2013-04-07 19:10:00,
2013-04-07 12:15:00,47.9,44.2,29.86,SSW,207,5.0,9.0,87,0.03,,---,0.09,VWS V14.01,2013-04-07 19:15:00,
2013-04-07 12:20:00,48.3,44.3,29.86,SSE,162,8.0,9.0,86,0.03,,---,0.09,VWS V14.01,2013-04-07 19:20:00,
2013-04-07 12:25:00,48.6,44.6,29.86,South,169,2.0,9.0,86,0.03,,---,0.09,VWS V14.01,2013-04-07 19:25:00,
2013-04-07 12:30:00,49.3,45.3,29.87,SSE,165,6.0,9.0,86,0.03,,---,0.09,VWS V14.01,2013-04-07 19:30:00,
2013-04-07 12:35:00,50.0,45.0,29.87,WSW,249,2.0,9.0,83,0.03,,---,0.09,VWS V14.01,2013-04-07 19:35:00,
2013-04-07 12:40:00,50.3,44.4,29.87,WSW,248,3.0,11.0,80,0.03,,---,0.09,VWS V14.01,2013-04-07 19:40:00,
2013-04-07 12:45:00,50.3,44.4,29.87,SSW,205,2.0,11.0,80,0.03,,---,0.09,VWS V14.01,2013-04-07 19:45:00,
2013-04-07 12:50:00,49.6,43.7,29.87,NNE,26,3.0,14.0,80,0.03,,---,0.09,VWS V14.01,2013-04-07 19:50:00,
2013-04-07 12:55:00,48.9,43.3,29.87,SSW,211,2.0,14.0,81,0.03,,---,0.09,VWS V14.01,2013-04-07 19:55:00,
2013-04-07 13:00:00,48.7,43.8,29.87,SSW,203,6.0,14.0,83,0.03,,---,0.09,VWS V14.01,2013-04-07 20:00:00,
2013-04-07 13:05:00,48.6,43.0,29.87,WSW,246,6.0,12.0,81,0.02,,---,0.10,VWS V14.01,2013-04-07 20:05:00,
2013-04-07 13:10:00,48.6,43.4,29.87,SSE,166,2.0,12.0,82,0.02,,---,0.10,VWS V14.01,2013-04-07 20:10:00,
2013-04-07 13:15:00,48.9,43.3,29.87,SE,139,0.0,12.0,81,0.02,,---,0.10,VWS V14.01,2013-04-07 20:15:00,
2013-04-07 13:20:00,49.4,43.8,29.88,South,190,5.0,12.0,81,0.02,,---,0.10,VWS V14.01,2013-04-07 20:20:00,
2013-04-07 13:25:00,49.7,43.5,29.88,WNW,291,6.0,12.0,79,0.02,,---,0.10,VWS V14.01,2013-04-07 20:25:00,
2013-04-07 13:30:00,49.5,43.9,29.87,WNW,283,2.0,12.0,81,0.02,,---,0.10,VWS V14.01,2013-04-07 20:30:00,
2013-04-07 13:35:00,49.8,43.9,29.87,WNW,298,3.0,10.0,80,0.01,,---,0.10,VWS V14.01,2013-04-07 20:35:00,
2013-04-07 13:40:00,50.1,43.5,29.87,SW,214,0.0,10.0,78,0.01,,---,0.10,VWS V14.01,2013-04-07 20:40:00,
2013-04-07 13:45:00,50.6,44.3,29.87,SSW,198,1.0,10.0,79,0.01,,---,0.10,VWS V14.01,2013-04-07 20:45:00,
2013-04-07 13:51:00,50.9,44.0,29.88,SSW,201,0.0,10.0,77,0.01,,---,0.10,VWS V14.01,2013-04-07 20:51:00,
2013-04-07 13:56:00,50.4,42.8,29.88,East,79,1.0,16.0,75,0.01,,---,0.10,VWS V14.01,2013-04-07 20:56:00,
2013-04-07 14:01:00,50.0,43.1,29.88,WSW,245,3.0,16.0,77,0.01,,---,0.10,VWS V14.01,2013-04-07 21:01:00,
2013-04-07 14:06:00,49.8,43.2,29.87,SW,215,0.0,6.0,78,0.00,,---,0.10,VWS V14.01,2013-04-07 21:06:00,
2013-04-07 14:11:00,50.3,43.4,29.88,West,259,2.0,8.0,77,0.00,,---,0.10,VWS V14.01,2013-04-07 21:11:00,
2013-04-07 14:16:00,51.3,43.0,29.88,West,261,2.0,9.0,73,0.00,,---,0.10,VWS V14.01,2013-04-07 21:16:00,
2013-04-07 14:21:00,51.4,43.0,29.88,WSW,253,4.0,9.0,73,0.00,,---,0.10,VWS V14.01,2013-04-07 21:21:00,
2013-04-07 14:26:00,51.2,42.5,29.89,SSW,201,2.0,11.0,72,0.00,,---,0.10,VWS V14.01,2013-04-07 21:26:00,
2013-04-07 14:31:00,51.5,43.1,29.88,SW,225,3.0,11.0,73,0.00,,---,0.10,VWS V14.01,2013-04-07 21:31:00,
2013-04-07 14:36:00,51.6,42.5,29.88,SSE,152,4.0,10.0,71,0.00,,---,0.10,VWS V14.01,2013-04-07 21:36:00,
2013-04-07 14:41:00,51.8,43.8,29.88,WSW,252,2.0,10.0,74,0.00,,---,0.10,VWS V14.01,2013-04-07 21:41:00,
2013-04-07 14:46:00,52.3,42.8,29.88,South,191,4.0,10.0,70,0.00,,---,0.10,VWS V14.01,2013-04-07 21:46:00,
2013-04-07 14:51:00,52.3,42.8,29.88,South,172,1.0,10.0,70,0.00,,---,0.10,VWS V14.01,2013-04-07 21:51:00,
2013-04-07 14:56:00,52.3,42.8,29.88,SW,232,3.0,10.0,70,0.00,,---,0.10,VWS V14.01,2013-04-07 21:56:00,
2013-04-07 15:01:00,52.0,42.5,29.89,SSW,203,2.0,10.0,70,0.00,,---,0.10,VWS V14.01,2013-04-07 22:01:00,
2013-04-07 15:06:00,51.0,43.4,29.89,SSE,150,0.0,6.0,75,0.00,,---,0.10,VWS V14.01,2013-04-07 22:06:00,
2013-04-07 15:11:00,50.1,43.5,29.89,SW,224,1.0,11.0,78,0.00,,---,0.10,VWS V14.01,2013-04-07 22:11:00,
2013-04-07 15:17:00,49.6,43.4,29.89,SSW,207,3.0,11.0,79,0.00,,---,0.10,VWS V14.01,2013-04-07 22:17:00,
2013-04-07 15:22:00,48.8,42.9,29.90,SW,224,4.0,11.0,80,0.03,,---,0.13,VWS V14.01,2013-04-07 22:22:00,
2013-04-07 15:27:00,48.1,42.9,29.90,SW,224,1.0,11.0,82,0.03,,---,0.13,VWS V14.01,2013-04-07 22:27:00,
2013-04-07 15:32:00,47.8,43.2,29.90,SW,233,3.0,6.0,84,0.03,,---,0.13,VWS V14.01,2013-04-07 22:32:00,
2013-04-07 15:37:00,47.7,43.4,29.89,SW,233,1.0,9.0,85,0.03,,---,0.13,VWS V14.01,2013-04-07 22:37:00,
2013-04-07 15:42:00,48.3,43.7,29.89,SSE,163,2.0,9.0,84,0.03,,---,0.13,VWS V14.01,2013-04-07 22:42:00,
2013-04-07 15:47:00,49.0,44.4,29.89,SSE,152,4.0,9.0,84,0.03,,---,0.13,VWS V14.01,2013-04-07 22:47:00,
2013-04-07 15:52:00,49.4,43.2,29.89,SSW,207,7.0,9.0,79,0.03,,---,0.13,VWS V14.01,2013-04-07 22:52:00,
2013-04-07 15:57:00,49.7,43.1,29.89,SSW,194,1.0,9.0,78,0.03,,---,0.13,VWS V14.01,2013-04-07 22:57:00,
2013-04-07 16:02:00,50.1,43.8,29.89,WSW,256,2.0,3.0,79,0.03,,---,0.13,VWS V14.01,2013-04-07 23:02:00,
2013-04-07 16:07:00,50.1,42.8,29.89,SW,222,7.0,10.0,76,0.03,,---,0.13,VWS V14.01,2013-04-07 23:07:00,
2013-04-07 16:12:00,49.7,42.8,29.89,SW,215,3.0,10.0,77,0.03,,---,0.13,VWS V14.01,2013-04-07 23:12:00,
2013-04-07 16:17:00,49.7,43.5,29.89,SSW,207,0.0,10.0,79,0.03,,---,0.13,VWS V14.01,2013-04-07 23:17:00,
2013-04-07 16:22:00,49.3,43.1,29.90,SW,222,5.0,10.0,79,0.03,,---,0.13,VWS V14.01,2013-04-07 23:22:00,
2013-04-07 16:27:00,48.8,42.6,29.90,SSW,205,2.0,10.0,79,0.03,,---,0.13,VWS V14.01,2013-04-07 23:27:00,
2013-04-07 16:32:00,48.5,42.0,29.89,SSW,205,0.0,8.0,78,0.00,,---,0.13,VWS V14.01,2013-04-07 23:32:00,
2013-04-07 16:37:00,48.5,41.3,29.89,SW,214,4.0,11.0,76,0.00,,---,0.13,VWS V14.01,2013-04-07 23:37:00,
2013-04-07 16:42:00,48.6,41.7,29.89,SSW,195,3.0,11.0,77,0.00,,---,0.13,VWS V14.01,2013-04-07 23:42:00,
2013-04-07 16:47:00,48.8,41.6,29.89,SW,221,2.0,11.0,76,0.00,,---,0.13,VWS V14.01,2013-04-07 23:47:00,
2013-04-07 16:52:00,49.0,41.4,29.90,WSW,238,3.0,11.0,75,0.00,,---,0.13,VWS V14.01,2013-04-07 23:52:00,
2013-04-07 16:58:00,49.1,40.8,29.90,WNW,301,5.0,11.0,73,0.00,,---,0.13,VWS V14.01,2013-04-07 23:58:00,
2013-04-07 17:03:00,49.2,42.0,29.90,NNE,13,1.0,2.0,76,0.00,,---,0.13,VWS V14.01,2013-04-08 00:03:00,
2013-04-07 17:08:00,49.4,41.8,29.90,West,259,5.0,5.0,75,0.00,,---,0.13,VWS V14.01,2013-04-08 00:08:00,
2013-04-07 17:13:00,49.3,41.7,29.90,SW,214,0.0,6.0,75,0.00,,---,0.13,VWS V14.01,2013-04-08 00:13:00,
2013-04-07 17:18:00,49.3,41.4,29.90,NW,313,2.0,10.0,74,0.00,,---,0.13,VWS V14.01,2013-04-08 00:18:00,
2013-04-07 17:23:00,49.2,42.0,29.90,SSW,194,0.0,10.0,76,0.00,,---,0.13,VWS V14.01,2013-04-08 00:23:00,
2013-04-07 17:28:00,49.1,41.5,29.90,NNW,328,1.0,10.0,75,0.00,,---,0.13,VWS V14.01,2013-04-08 00:28:00,
2013-04-07 17:33:00,48.9,41.3,29.90,WNW,294,1.0,3.0,75,0.00,,---,0.13,VWS V14.01,2013-04-08 00:33:00,
2013-04-07 17:38:00,48.7,41.5,29.90,SE,138,0.0,8.0,76,0.00,,---,0.13,VWS V14.01,2013-04-08 00:38:00,
2013-04-07 17:43:00,48.7,41.8,29.91,South,191,0.0,8.0,77,0.00,,---,0.13,VWS V14.01,2013-04-08 00:43:00,
2013-04-07 17:48:00,48.6,41.7,29.91,NNE,15,2.0,8.0,77,0.00,,---,0.13,VWS V14.01,2013-04-08 00:48:00,
2013-04-07 17:53:00,48.5,42.0,29.91,NW,316,1.0,8.0,78,0.00,,---,0.13,VWS V14.01,2013-04-08 00:53:00,
2013-04-07 17:58:00,48.5,41.6,29.91,West,262,0.0,8.0,77,0.00,,---,0.13,VWS V14.01,2013-04-08 00:58:00,
2013-04-07 18:03:00,48.5,41.6,29.91,WSW,252,4.0,4.0,77,0.00,,---,0.13,VWS V14.01,2013-04-08 01:03:00,
2013-04-07 18:08:00,48.5,41.6,29.91,WSW,250,2.0,9.0,77,0.00,,---,0.13,VWS V14.01,2013-04-08 01:08:00,
2013-04-07 18:13:00,48.2,41.0,29.91,WSW,250,4.0,9.0,76,0.00,,---,0.13,VWS V14.01,2013-04-08 01:13:00,
2013-04-07 18:18:00,48.1,41.6,29.91,SW,217,4.0,9.0,78,0.00,,---,0.13,VWS V14.01,2013-04-08 01:18:00,
2013-04-07 18:23:00,48.0,41.5,29.91,WNW,291,4.0,9.0,78,0.00,,---,0.13,VWS V14.01,2013-04-08 01:23:00,
2013-04-07 18:28:00,48.2,42.0,29.91,NW,307,4.0,9.0,79,0.00,,---,0.13,VWS V14.01,2013-04-08 01:28:00,
2013-04-07 18:33:00,48.3,42.1,29.91,SW,233,0.0,5.0,79,0.00,,---,0.13,VWS V14.01,2013-04-08 01:33:00,
2013-04-07 18:38:00,48.1,41.6,29.91,SSE,166,4.0,9.0,78,0.00,,---,0.13,VWS V14.01,2013-04-08 01:38:00,
2013-04-07 18:43:00,48.0,41.8,29.91,SW,225,2.0,9.0,79,0.00,,---,0.13,VWS V14.01,2013-04-08 01:43:00,
2013-04-07 18:48:00,47.8,41.6,29.91,SSW,193,4.0,9.0,79,0.00,,---,0.13,VWS V14.01,2013-04-08 01:48:00,
2013-04-07 18:53:00,47.6,41.8,29.91,SSW,209,1.0,9.0,80,0.00,,---,0.13,VWS V14.01,2013-04-08 01:53:00,
2013-04-07 18:58:00,47.2,42.0,29.91,WNW,303,0.0,10.0,82,0.00,,---,0.13,VWS V14.01,2013-04-08 01:58:00,
2013-04-07 19:03:00,46.7,41.2,29.91,WSW,253,0.0,3.0,81,0.00,,---,0.13,VWS V14.01,2013-04-08 02:03:00,
2013-04-07 19:08:00,46.4,40.9,29.91,SSE,150,0.0,10.0,81,0.00,,---,0.13,VWS V14.01,2013-04-08 02:08:00,
2013-04-07 19:13:00,46.1,40.6,29.91,WNW,290,1.0,10.0,81,0.00,,---,0.13,VWS V14.01,2013-04-08 02:13:00,
2013-04-07 19:18:00,46.0,40.5,29.91,WNW,288,3.0,10.0,81,0.00,,---,0.13,VWS V14.01,2013-04-08 02:18:00,
2013-04-07 19:23:00,45.9,40.4,29.91,West,277,3.0,10.0,81,0.00,,---,0.13,VWS V14.01,2013-04-08 02:23:00,
2013-04-07 19:28:00,45.8,40.3,29.91,SW,228,6.0,10.0,81,0.00,,---,0.13,VWS V14.01,2013-04-08 02:28:00,
2013-04-07 19:33:00,45.6,39.8,29.92,WSW,240,0.0,8.0,80,0.00,,---,0.13,VWS V14.01,2013-04-08 02:33:00,
2013-04-07 19:38:00,45.4,39.9,29.92,NW,321,5.0,9.0,81,0.00,,---,0.13,VWS V14.01,2013-04-08 02:38:00,
2013-04-07 19:44:00,45.2,39.7,29.92,WSW,250,0.0,9.0,81,0.00,,---,0.13,VWS V14.01,2013-04-08 02:44:00,
2013-04-07 19:49:00,45.1,39.9,29.92,SW,218,0.0,9.0,82,0.00,,---,0.13,VWS V14.01,2013-04-08 02:49:00,
2013-04-07 19:54:00,44.9,39.8,29.92,WNW,293,1.0,9.0,82,0.00,,---,0.13,VWS V14.01,2013-04-08 02:54:00,
2013-04-07 19:59:00,44.8,40.0,29.92,West,274,2.0,9.0,83,0.00,,---,0.13,VWS V14.01,2013-04-08 02:59:00,
2013-04-07 20:04:00,44.7,39.9,29.92,NNW,343,0.0,2.0,83,0.00,,---,0.13,VWS V14.01,2013-04-08 03:04:00,
2013-04-07 20:10:00,44.6,40.1,29.92,West,271,0.0,4.0,84,0.00,,---,0.13,VWS V14.01,2013-04-08 03:10:00,
2013-04-07 20:15:00,44.5,40.0,29.93,WSW,258,0.0,4.0,84,0.00,,---,0.13,VWS V14.01,2013-04-08 03:15:00,
2013-04-07 20:20:00,44.6,40.1,29.93,WSW,243,1.0,4.0,84,0.00,,---,0.13,VWS V14.01,2013-04-08 03:20:00,
2013-04-07 20:25:00,44.6,40.4,29.93,NW,312,2.0,4.0,85,0.00,,---,0.13,VWS V14.01,2013-04-08 03:25:00,
2013-04-07 20:30:00,44.6,40.1,29.93,WSW,245,2.0,4.0,84,0.00,,---,0.13,VWS V14.01,2013-04-08 03:30:00,
2013-04-07 20:35:00,44.6,40.1,29.93,West,278,1.0,3.0,84,0.00,,---,0.13,VWS V14.01,2013-04-08 03:35:00,
2013-04-07 20:40:00,44.5,40.0,29.94,SSW,204,0.0,5.0,84,0.00,,---,0.13,VWS V14.01,2013-04-08 03:40:00,
2013-04-07 20:46:00,44.5,40.0,29.94,WNW,293,0.0,5.0,84,0.00,,---,0.13,VWS V14.01,2013-04-08 03:46:00,
2013-04-07 20:51:00,44.5,40.0,29.94,SW,236,2.0,6.0,84,0.00,,---,0.13,VWS V14.01,2013-04-08 03:51:00,
2013-04-07 20:56:00,44.4,39.9,29.94,SW,225,1.0,6.0,84,0.00,,---,0.13,VWS V14.01,2013-04-08 03:56:00,
2013-04-07 21:00:00,44.3,39.8,29.95,NNW,345,0.0,6.0,84,0.00,,---,0.13,VWS V14.01,2013-04-08 04:00:00,
2013-04-07 21:05:00,44.3,39.8,29.95,West,273,1.0,3.0,84,0.00,,---,0.13,VWS V14.01,2013-04-08 04:05:00,
2013-04-07 21:10:00,44.2,39.7,29.95,WNW,283,0.0,5.0,84,0.00,,---,0.13,VWS V14.01,2013-04-08 04:10:00,
2013-04-07 21:15:00,44.1,39.6,29.95,NW,308,0.0,5.0,84,0.00,,---,0.13,VWS V14.01,2013-04-08 04:15:00,
2013-04-07 21:20:00,44.1,39.6,29.96,WSW,252,0.0,5.0,84,0.00,,---,0.13,VWS V14.01,2013-04-08 04:20:00,
2013-04-07 21:25:00,44.1,39.6,29.96,NW,316,0.0,5.0,84,0.00,,---,0.13,VWS V14.01,2013-04-08 04:25:00,
2013-04-07 21:30:00,44.0,39.8,29.96,West,262,1.0,5.0,85,0.00,,---,0.13,VWS V14.01,2013-04-08 04:30:00,
2013-04-07 21:35:00,44.0,39.8,29.96,SW,229,0.0,3.0,85,0.00,,---,0.13,VWS V14.01,2013-04-08 04:35:00,
2013-04-07 21:40:00,43.9,39.7,29.96,WSW,252,1.0,5.0,85,0.00,,---,0.13,VWS V14.01,2013-04-08 04:40:00,
2013-04-07 21:45:00,43.8,39.9,29.96,West,266,1.0,5.0,86,0.00,,---,0.13,VWS V14.01,2013-04-08 04:45:00,
2013-04-07 21:50:00,43.7,39.5,29.97,ESE,120,1.0,5.0,85,0.00,,---,0.13,VWS V14.01,2013-04-08 04:50:00,
2013-04-07 21:55:00,43.6,39.4,29.97,NW,306,0.0,5.0,85,0.00,,---,0.13,VWS V14.01,2013-04-08 04:55:00,
2013-04-07 22:00:00,43.5,39.3,29.97,West,262,2.0,5.0,85,0.00,,---,0.13,VWS V14.01,2013-04-08 05:00:00,
2013-04-07 22:05:00,43.5,39.3,29.97,SW,219,1.0,3.0,85,0.00,,---,0.13,VWS V14.01,2013-04-08 05:05:00,
2013-04-07 22:10:00,43.4,39.5,29.97,NW,314,0.0,3.0,86,0.00,,---,0.13,VWS V14.01,2013-04-08 05:10:00,
2013-04-07 22:15:00,43.4,39.5,29.97,SW,219,0.0,6.0,86,0.00,,---,0.13,VWS V14.01,2013-04-08 05:15:00,
2013-04-07 22:20:00,43.3,39.4,29.97,West,274,0.0,6.0,86,0.00,,---,0.13,VWS V14.01,2013-04-08 05:20:00,
2013-04-07 22:25:00,43.4,39.5,29.98,SW,222,0.0,7.0,86,0.00,,---,0.13,VWS V14.01,2013-04-08 05:25:00,
2013-04-07 22:30:00,43.4,39.5,29.98,ESE,111,0.0,7.0,86,0.00,,---,0.13,VWS V14.01,2013-04-08 05:30:00,
2013-04-07 22:35:00,43.5,39.6,29.98,WNW,283,0.0,2.0,86,0.00,,---,0.13,VWS V14.01,2013-04-08 05:35:00,
2013-04-07 22:40:00,43.5,39.6,29.98,WSW,257,0.0,2.0,86,0.00,,---,0.13,VWS V14.01,2013-04-08 05:40:00,
2013-04-07 22:45:00,43.5,39.6,29.98,SSW,203,2.0,4.0,86,0.00,,---,0.13,VWS V14.01,2013-04-08 05:45:00,
2013-04-07 22:50:00,43.5,39.3,29.99,SSW,193,3.0,4.0,85,0.00,,---,0.13,VWS V14.01,2013-04-08 05:50:00,
2013-04-07 22:55:00,43.5,39.3,29.99,SSW,201,0.0,4.0,85,0.00,,---,0.13,VWS V14.01,2013-04-08 05:55:00,
2013-04-07 23:00:00,43.5,39.3,29.99,West,281,0.0,4.0,85,0.00,,---,0.13,VWS V14.01,2013-04-08 06:00:00,
2013-04-07 23:05:00,43.5,39.0,29.99,SW,222,0.0,5.0,84,0.00,,---,0.13,VWS V14.01,2013-04-08 06:05:00,
2013-04-07 23:10:00,43.5,39.0,29.99,South,190,0.0,5.0,84,0.00,,---,0.13,VWS V14.01,2013-04-08 06:10:00,
2013-04-07 23:15:00,43.5,39.0,29.99,WSW,239,1.0,5.0,84,0.00,,---,0.13,VWS V14.01,2013-04-08 06:15:00,
2013-04-07 23:20:00,43.5,39.3,29.99,SW,232,1.0,5.0,85,0.00,,---,0.13,VWS V14.01,2013-04-08 06:20:00,
2013-04-07 23:25:00,43.4,38.9,29.99,South,174,0.0,5.0,84,0.00,,---,0.13,VWS V14.01,2013-04-08 06:25:00,
2013-04-07 23:30:00,43.3,38.8,29.99,SW,225,0.0,5.0,84,0.00,,---,0.13,VWS V14.01,2013-04-08 06:30:00,
2013-04-07 23:35:00,43.3,38.8,29.99,SSW,204,0.0,2.0,84,0.00,,---,0.13,VWS V14.01,2013-04-08 06:35:00,
2013-04-07 23:40:00,43.2,39.0,30.00,SSW,204,0.0,2.0,85,0.00,,---,0.13,VWS V14.01,2013-04-08 06:40:00,
2013-04-07 23:45:00,43.1,38.6,30.00,SSW,204,0.0,2.0,84,0.00,,---,0.13,VWS V14.01,2013-04-08 06:45:00,
2013-04-07 23:51:00,43.0,38.8,30.00,SSW,193,0.0,2.0,85,0.00,,---,0.13,VWS V14.01,2013-04-08 06:51:00,
2013-04-07 23:56:00,42.9,38.7,30.00,SSW,194,0.0,2.0,85,0.00,,---,0.13,VWS V14.01,2013-04-08 06:56:00,